San Juan, PR

2:16 PM AST on September 22, 2014 (GMT -0400)
Condado, Calle Earle, At The Ocean | Change Station
CLOSE
Current Station
Personal Weather Station
Location: San Juan, SAN JUAN
Elevation: 10 ft
Nearby Weather Stations

Elev 10 ft 18.46 °N, 66.07 °W | Updated 7 seconds ago

Scattered Clouds
Scattered Clouds
87.6 °F
Feels Like 101 °F
N
4.0
Wind Variable Wind from NE
Gusts 7.0 mph

Today
High -- | Low -- °F
--% Chance of Precip.
Yesterday
High -- | Low -- °F
Precip. -- in
6:13 AM 6:20 PM
Waning Crescent, 2% visible
Pressure 29.90 in
Visibility 10.0 miles
Clouds Few 2100 ft
Scattered Clouds 3600 ft
Scattered Clouds 6000 ft
Heat Index 101 °F
Dew Point 78 °F
Humidity 73%
Rainfall 0.00 in
Snow Depth Not available.
UV 8 out of 12
Pollen Not available.
Air Quality Not available.
Flu Activity Not available.
METAR TJSJ 221756Z 06010KT 10SM FEW021 SCT036 SCT060 31/26 A2990 RMK AO2 SLP123 T03060261 10311 20283 58028

More Conditions Fewer Conditions

Pressure 29.90 in
Visibility 10.0 miles
Clouds Few 2100 ft
Scattered Clouds 3600 ft
Scattered Clouds 6000 ft
Heat Index 101 °F
Dew Point 78 °F
Humidity 73%
Rainfall 0.00 in
Snow Depth Not available.
UV 8 out of 12
Pollen Not available.
Air Quality Not available.
Flu Activity Not available.
METAR TJSJ 221756Z 06010KT 10SM FEW021 SCT036 SCT060 31/26 A2990 RMK AO2 SLP123 T03060261 10311 20283 58028

More Conditions Fewer Conditions

10-Day Weather Forecast

Almanac

Astronomy

Sep. 22, 2014 Rise Set
Actual Time 6:13 AM AST 6:20 PM AST
Civil Twilight 5:51 AM AST 6:42 PM AST
Nautical Twilight 5:26 AM AST 7:07 PM AST
Astronomical Twilight 5:00 AM AST 7:33 PM AST
Moon 4:48 AM AST 5:20 PM AST
Length of Visible Light 12h 50m
Length of Day
12h 07m
Tomorrow will be 1m 3s shorter.
Waning Crescent, 2% of the Moon is Illuminated
Today
Waning Crescent
Sep 24
New
Oct 1
First Quarter
Oct 8
Full
Oct 15
Last Quarter

Community

WunderPhotos

Upload Photos

1,755,498 photos uploaded!

WunderBlogs® & News

By Dr. Jeff Masters
Director of Meteorology, Weather Underground
By Kari Strenfel
Meteorologist, Weather Underground
By Christopher C. Burt
Weather Historian, Weather Underground
September 22, 2014
September 22, 2014
September 22, 2014

Nearby

Snow Depth

Station Depth Elevation
No new snow has been reported.

Earthquake Activity

City Distance Mag. Time & Date
No recent earthquake activity has been reported nearby.
Minimum magnitude displayed is 2.5.

Coastal Water Temperatures

Place Temperature
San Juan, PR 84.9 °F
Mayaguez, PR 84.9 °F
Esperanza, PR 86.0 °F

Nearby Weather Stations